Airfield :
LOGIN :

Register | Disclaimer

   EN    FR    IT 

 










Legend :    VFR   Marginal VFR   IFR   Intensive IFR   Very Intensive IFR
Visi :
Ceiling :
>= 8 km
>= 3000ft
5 to 8 km
1000 to 3000 ft
1500m to 5 km
500 to 1000 ft
800 to 1500m
200 to 500 ft
< 800m
< 200 ft
Symbols :   Thunderstorms  Fog  Heavy snow  Heavy precipitations  Wind > 20 kt
SIGMETs :     Misc.  Thunderstorms  Icing  Turbulence  Mountain Waves  Volcanic Ashes






- Airport Elevation : 20 ft
- IATA code : LSI


EGPB - Sumburgh

CURRENT METAR :
  • 141250Z 21014KT 9999 VCSH SCT012 SCT024 07/05 Q0966

EXPIRED METARs :
  • 141220Z 21014KT 9999 VCSH FEW014 BKN024 07/05 Q0966 NOSIG
  • 141150Z 20012KT 9999 VCSH FEW011 BKN022 07/05 Q0966 TEMPO BKN010
  • 141120Z 15011KT 9999 FEW012 SCT025 07/05 Q0966
  • 141050Z 15011KT 9999 FEW012 SCT022 07/05 Q0966 NOSIG
  • 141020Z 14010KT 9999 -RA SCT010 BKN016 06/05 Q0966 TEMPO BKN010

TAF TAF EGPB
Valid from the 14 at 12:00 until the 14 at 21:00 UTC


141101Z 1412/1421 18011KT 9999 FEW018 SCT025
PROB40
TEMPO 1412/1421 6000 RA SHRA BKN012
PROB30
TEMPO 1412/1418 19015G25KT



MET'MAP, your aeronautical weather chart ! - Copyright ORBIFLY December 2007 - Disclaimer

ORBIFLY MET'MAP TEAM :

Programming & Development : Alexandra Zaïnal
Concept & original design : Baudouin d'Aumeries
Assistance for programming : Marc-Olivier Méhu
Technical & hardware support : Manuel Goepfert

Contact : metmap@orbifly.com




SOURCES & CREDITS :

   NOAA